sensor_id;sensor_type;location;lat;lon;timestamp;P1;durP1;ratioP1;P2;durP2;ratioP2
65477;SDS011;53678;39.642;22.430;2022-08-19T00:01:13;7.45;;;3.95;;
65477;SDS011;53678;39.642;22.430;2022-08-19T00:03:39;6.47;;;3.85;;
65477;SDS011;53678;39.642;22.430;2022-08-19T00:06:05;6.82;;;3.90;;
65477;SDS011;53678;39.642;22.430;2022-08-19T00:08:31;9.63;;;4.20;;
65477;SDS011;53678;39.642;22.430;2022-08-19T00:10:57;8.63;;;4.05;;
65477;SDS011;53678;39.642;22.430;2022-08-19T00:13:23;8.20;;;4.60;;
65477;SDS011;53678;39.642;22.430;2022-08-19T00:15:49;7.15;;;4.38;;
65477;SDS011;53678;39.642;22.430;2022-08-19T00:18:15;8.10;;;4.22;;
65477;SDS011;53678;39.642;22.430;2022-08-19T00:20:40;11.23;;;4.43;;
65477;SDS011;53678;39.642;22.430;2022-08-19T00:23:07;7.57;;;4.10;;
65477;SDS011;53678;39.642;22.430;2022-08-19T00:25:32;13.65;;;4.78;;
65477;SDS011;53678;39.642;22.430;2022-08-19T00:27:58;9.23;;;4.88;;
65477;SDS011;53678;39.642;22.430;2022-08-19T00:30:24;9.02;;;4.50;;
65477;SDS011;53678;39.642;22.430;2022-08-19T00:32:52;11.52;;;5.00;;
65477;SDS011;53678;39.642;22.430;2022-08-19T00:35:20;11.13;;;4.25;;
65477;SDS011;53678;39.642;22.430;2022-08-19T00:37:47;7.30;;;4.10;;
65477;SDS011;53678;39.642;22.430;2022-08-19T00:40:14;9.93;;;4.32;;
65477;SDS011;53678;39.642;22.430;2022-08-19T00:42:41;14.63;;;4.72;;
65477;SDS011;53678;39.642;22.430;2022-08-19T00:45:14;7.72;;;4.03;;
65477;SDS011;53678;39.642;22.430;2022-08-19T00:47:43;10.95;;;4.60;;
65477;SDS011;53678;39.642;22.430;2022-08-19T00:50:10;9.23;;;4.20;;
65477;SDS011;53678;39.642;22.430;2022-08-19T00:52:40;8.18;;;4.65;;
65477;SDS011;53678;39.642;22.430;2022-08-19T00:55:12;10.45;;;4.15;;
65477;SDS011;53678;39.642;22.430;2022-08-19T00:57:42;11.40;;;4.43;;
65477;SDS011;53678;39.642;22.430;2022-08-19T01:00:15;9.13;;;4.03;;
65477;SDS011;53678;39.642;22.430;2022-08-19T01:02:42;14.43;;;4.65;;
65477;SDS011;53678;39.642;22.430;2022-08-19T01:05:13;7.03;;;4.20;;
65477;SDS011;53678;39.642;22.430;2022-08-19T01:07:43;10.75;;;4.68;;
65477;SDS011;53678;39.642;22.430;2022-08-19T01:10:11;10.55;;;4.50;;
65477;SDS011;53678;39.642;22.430;2022-08-19T01:12:39;10.48;;;4.45;;
65477;SDS011;53678;39.642;22.430;2022-08-19T01:15:07;11.98;;;4.80;;
65477;SDS011;53678;39.642;22.430;2022-08-19T01:17:36;8.25;;;4.00;;
65477;SDS011;53678;39.642;22.430;2022-08-19T01:20:05;9.07;;;3.72;;
65477;SDS011;53678;39.642;22.430;2022-08-19T01:22:39;9.02;;;4.22;;
65477;SDS011;53678;39.642;22.430;2022-08-19T01:25:10;8.68;;;4.57;;
65477;SDS011;53678;39.642;22.430;2022-08-19T01:27:43;11.15;;;4.15;;
65477;SDS011;53678;39.642;22.430;2022-08-19T01:30:21;6.45;;;3.75;;
65477;SDS011;53678;39.642;22.430;2022-08-19T01:32:52;9.93;;;3.75;;
65477;SDS011;53678;39.642;22.430;2022-08-19T01:35:19;6.03;;;3.38;;
65477;SDS011;53678;39.642;22.430;2022-08-19T01:37:55;9.18;;;3.38;;
65477;SDS011;53678;39.642;22.430;2022-08-19T01:40:23;5.78;;;3.63;;
65477;SDS011;53678;39.642;22.430;2022-08-19T01:42:51;5.32;;;3.55;;
65477;SDS011;53678;39.642;22.430;2022-08-19T01:45:19;6.93;;;3.90;;
65477;SDS011;53678;39.642;22.430;2022-08-19T01:47:47;6.70;;;3.70;;
65477;SDS011;53678;39.642;22.430;2022-08-19T01:50:14;6.18;;;3.67;;
65477;SDS011;53678;39.642;22.430;2022-08-19T01:52:40;7.10;;;3.33;;
65477;SDS011;53678;39.642;22.430;2022-08-19T01:55:09;5.80;;;3.20;;
65477;SDS011;53678;39.642;22.430;2022-08-19T01:57:37;8.45;;;3.72;;
65477;SDS011;53678;39.642;22.430;2022-08-19T02:00:07;4.97;;;3.40;;
65477;SDS011;53678;39.642;22.430;2022-08-19T02:02:38;8.68;;;3.60;;
65477;SDS011;53678;39.642;22.430;2022-08-19T02:05:04;8.52;;;3.67;;
65477;SDS011;53678;39.642;22.430;2022-08-19T02:07:33;6.47;;;3.70;;
65477;SDS011;53678;39.642;22.430;2022-08-19T02:10:00;6.78;;;3.33;;
65477;SDS011;53678;39.642;22.430;2022-08-19T02:12:31;5.28;;;3.28;;
65477;SDS011;53678;39.642;22.430;2022-08-19T02:14:58;5.38;;;3.38;;
65477;SDS011;53678;39.642;22.430;2022-08-19T02:17:24;6.78;;;3.58;;
65477;SDS011;53678;39.642;22.430;2022-08-19T02:19:50;9.90;;;3.78;;
65477;SDS011;53678;39.642;22.430;2022-08-19T02:22:16;5.85;;;3.85;;
65477;SDS011;53678;39.642;22.430;2022-08-19T02:24:42;7.93;;;3.53;;
65477;SDS011;53678;39.642;22.430;2022-08-19T02:27:08;7.50;;;3.20;;
65477;SDS011;53678;39.642;22.430;2022-08-19T02:29:33;8.40;;;3.55;;
65477;SDS011;53678;39.642;22.430;2022-08-19T02:31:59;6.90;;;3.72;;
65477;SDS011;53678;39.642;22.430;2022-08-19T02:34:25;8.70;;;3.70;;
65477;SDS011;53678;39.642;22.430;2022-08-19T02:36:51;7.55;;;3.63;;
65477;SDS011;53678;39.642;22.430;2022-08-19T02:39:17;10.40;;;4.18;;
65477;SDS011;53678;39.642;22.430;2022-08-19T02:41:43;9.07;;;4.32;;
65477;SDS011;53678;39.642;22.430;2022-08-19T02:44:09;8.40;;;4.60;;
65477;SDS011;53678;39.642;22.430;2022-08-19T02:46:35;10.40;;;3.95;;
65477;SDS011;53678;39.642;22.430;2022-08-19T02:49:05;10.35;;;4.40;;
65477;SDS011;53678;39.642;22.430;2022-08-19T02:51:34;7.07;;;3.53;;
65477;SDS011;53678;39.642;22.430;2022-08-19T02:54:02;12.00;;;6.30;;
65477;SDS011;53678;39.642;22.430;2022-08-19T02:56:29;10.10;;;5.18;;
65477;SDS011;53678;39.642;22.430;2022-08-19T02:58:56;7.78;;;3.75;;
65477;SDS011;53678;39.642;22.430;2022-08-19T03:01:30;7.13;;;4.03;;
65477;SDS011;53678;39.642;22.430;2022-08-19T03:03:58;7.45;;;3.80;;
65477;SDS011;53678;39.642;22.430;2022-08-19T03:06:25;19.10;;;4.55;;
65477;SDS011;53678;39.642;22.430;2022-08-19T03:08:51;9.45;;;4.07;;
65477;SDS011;53678;39.642;22.430;2022-08-19T03:11:19;9.55;;;4.28;;
65477;SDS011;53678;39.642;22.430;2022-08-19T03:13:47;6.53;;;4.10;;
65477;SDS011;53678;39.642;22.430;2022-08-19T03:16:17;6.72;;;3.80;;
65477;SDS011;53678;39.642;22.430;2022-08-19T03:18:43;11.55;;;4.15;;
65477;SDS011;53678;39.642;22.430;2022-08-19T03:21:16;11.88;;;4.22;;
65477;SDS011;53678;39.642;22.430;2022-08-19T03:23:43;7.10;;;4.05;;
65477;SDS011;53678;39.642;22.430;2022-08-19T03:26:09;5.28;;;3.80;;
65477;SDS011;53678;39.642;22.430;2022-08-19T03:28:35;5.30;;;3.53;;
65477;SDS011;53678;39.642;22.430;2022-08-19T03:31:06;5.80;;;3.58;;
65477;SDS011;53678;39.642;22.430;2022-08-19T03:33:37;7.43;;;3.75;;
65477;SDS011;53678;39.642;22.430;2022-08-19T03:38:35;10.23;;;3.92;;
65477;SDS011;53678;39.642;22.430;2022-08-19T03:43:34;10.60;;;3.83;;
65477;SDS011;53678;39.642;22.430;2022-08-19T03:46:06;7.55;;;3.80;;
65477;SDS011;53678;39.642;22.430;2022-08-19T03:48:39;5.60;;;3.95;;
65477;SDS011;53678;39.642;22.430;2022-08-19T03:51:06;6.13;;;4.30;;
65477;SDS011;53678;39.642;22.430;2022-08-19T03:53:33;7.88;;;3.83;;
65477;SDS011;53678;39.642;22.430;2022-08-19T03:56:00;8.02;;;3.95;;
65477;SDS011;53678;39.642;22.430;2022-08-19T03:58:26;7.70;;;4.25;;
65477;SDS011;53678;39.642;22.430;2022-08-19T04:00:54;9.32;;;4.50;;
65477;SDS011;53678;39.642;22.430;2022-08-19T04:03:21;7.88;;;4.30;;
65477;SDS011;53678;39.642;22.430;2022-08-19T04:05:47;7.45;;;4.30;;
65477;SDS011;53678;39.642;22.430;2022-08-19T04:08:13;9.88;;;4.53;;
65477;SDS011;53678;39.642;22.430;2022-08-19T04:10:43;7.47;;;4.25;;
65477;SDS011;53678;39.642;22.430;2022-08-19T04:13:09;11.98;;;4.38;;
65477;SDS011;53678;39.642;22.430;2022-08-19T04:15:38;9.20;;;4.47;;
65477;SDS011;53678;39.642;22.430;2022-08-19T04:18:07;13.48;;;5.18;;
65477;SDS011;53678;39.642;22.430;2022-08-19T04:20:43;13.73;;;4.50;;
65477;SDS011;53678;39.642;22.430;2022-08-19T04:23:11;9.02;;;4.10;;
65477;SDS011;53678;39.642;22.430;2022-08-19T04:25:38;13.30;;;4.50;;
65477;SDS011;53678;39.642;22.430;2022-08-19T04:28:07;7.72;;;4.90;;
65477;SDS011;53678;39.642;22.430;2022-08-19T04:30:44;11.77;;;4.90;;
65477;SDS011;53678;39.642;22.430;2022-08-19T04:33:13;10.27;;;5.10;;
65477;SDS011;53678;39.642;22.430;2022-08-19T04:35:41;11.30;;;5.13;;
65477;SDS011;53678;39.642;22.430;2022-08-19T04:38:09;16.20;;;5.28;;
65477;SDS011;53678;39.642;22.430;2022-08-19T04:40:39;11.23;;;4.97;;
65477;SDS011;53678;39.642;22.430;2022-08-19T04:43:25;10.10;;;4.55;;
65477;SDS011;53678;39.642;22.430;2022-08-19T04:45:51;15.90;;;4.57;;
65477;SDS011;53678;39.642;22.430;2022-08-19T04:48:17;8.23;;;4.55;;
65477;SDS011;53678;39.642;22.430;2022-08-19T04:50:54;9.80;;;4.40;;
65477;SDS011;53678;39.642;22.430;2022-08-19T04:53:25;12.45;;;4.50;;
65477;SDS011;53678;39.642;22.430;2022-08-19T04:55:56;6.88;;;3.95;;
65477;SDS011;53678;39.642;22.430;2022-08-19T04:58:23;10.90;;;4.25;;
65477;SDS011;53678;39.642;22.430;2022-08-19T05:00:51;13.55;;;4.38;;
65477;SDS011;53678;39.642;22.430;2022-08-19T05:03:16;6.78;;;3.88;;
65477;SDS011;53678;39.642;22.430;2022-08-19T05:05:43;14.43;;;3.90;;
65477;SDS011;53678;39.642;22.430;2022-08-19T05:08:11;10.05;;;4.00;;
65477;SDS011;53678;39.642;22.430;2022-08-19T05:10:38;8.52;;;4.25;;
65477;SDS011;53678;39.642;22.430;2022-08-19T05:13:04;7.13;;;3.85;;
65477;SDS011;53678;39.642;22.430;2022-08-19T05:15:31;8.63;;;4.13;;
65477;SDS011;53678;39.642;22.430;2022-08-19T05:17:56;6.65;;;3.80;;
65477;SDS011;53678;39.642;22.430;2022-08-19T05:20:41;5.80;;;3.90;;
65477;SDS011;53678;39.642;22.430;2022-08-19T05:23:36;11.00;;;4.10;;
65477;SDS011;53678;39.642;22.430;2022-08-19T05:26:02;10.20;;;4.05;;
65477;SDS011;53678;39.642;22.430;2022-08-19T05:28:28;15.32;;;3.70;;
65477;SDS011;53678;39.642;22.430;2022-08-19T05:30:54;9.60;;;4.15;;
65477;SDS011;53678;39.642;22.430;2022-08-19T05:33:21;8.95;;;3.88;;
65477;SDS011;53678;39.642;22.430;2022-08-19T05:35:48;13.73;;;3.80;;
65477;SDS011;53678;39.642;22.430;2022-08-19T05:38:15;9.07;;;3.60;;
65477;SDS011;53678;39.642;22.430;2022-08-19T05:40:43;7.65;;;3.90;;
65477;SDS011;53678;39.642;22.430;2022-08-19T05:43:13;9.77;;;3.60;;
65477;SDS011;53678;39.642;22.430;2022-08-19T05:45:41;6.18;;;3.78;;
65477;SDS011;53678;39.642;22.430;2022-08-19T05:48:08;9.50;;;3.88;;
65477;SDS011;53678;39.642;22.430;2022-08-19T05:50:39;6.85;;;3.67;;
65477;SDS011;53678;39.642;22.430;2022-08-19T05:53:06;7.30;;;3.83;;
65477;SDS011;53678;39.642;22.430;2022-08-19T05:55:34;6.60;;;4.05;;
65477;SDS011;53678;39.642;22.430;2022-08-19T05:58:02;8.00;;;3.65;;
65477;SDS011;53678;39.642;22.430;2022-08-19T06:00:27;6.88;;;3.88;;
65477;SDS011;53678;39.642;22.430;2022-08-19T06:02:55;8.45;;;4.28;;
65477;SDS011;53678;39.642;22.430;2022-08-19T06:05:21;12.80;;;4.40;;
65477;SDS011;53678;39.642;22.430;2022-08-19T06:07:47;7.78;;;3.90;;
65477;SDS011;53678;39.642;22.430;2022-08-19T06:10:14;9.82;;;3.88;;
65477;SDS011;53678;39.642;22.430;2022-08-19T06:12:39;6.32;;;3.67;;
65477;SDS011;53678;39.642;22.430;2022-08-19T06:15:08;9.23;;;4.07;;
65477;SDS011;53678;39.642;22.430;2022-08-19T06:17:36;10.25;;;3.97;;
65477;SDS011;53678;39.642;22.430;2022-08-19T06:20:06;10.07;;;4.10;;
65477;SDS011;53678;39.642;22.430;2022-08-19T06:22:38;8.40;;;3.97;;
65477;SDS011;53678;39.642;22.430;2022-08-19T06:25:05;15.27;;;4.20;;
65477;SDS011;53678;39.642;22.430;2022-08-19T06:27:34;6.28;;;3.67;;
65477;SDS011;53678;39.642;22.430;2022-08-19T06:30:01;10.57;;;3.70;;
65477;SDS011;53678;39.642;22.430;2022-08-19T06:32:28;11.68;;;4.47;;
65477;SDS011;53678;39.642;22.430;2022-08-19T06:34:54;9.27;;;3.95;;
65477;SDS011;53678;39.642;22.430;2022-08-19T06:37:20;8.15;;;4.20;;
65477;SDS011;53678;39.642;22.430;2022-08-19T06:39:47;7.32;;;4.25;;
65477;SDS011;53678;39.642;22.430;2022-08-19T06:42:13;11.43;;;5.50;;
65477;SDS011;53678;39.642;22.430;2022-08-19T06:44:44;6.90;;;3.80;;
65477;SDS011;53678;39.642;22.430;2022-08-19T06:47:16;9.35;;;4.28;;
65477;SDS011;53678;39.642;22.430;2022-08-19T06:49:43;10.00;;;4.20;;
65477;SDS011;53678;39.642;22.430;2022-08-19T06:52:11;9.48;;;4.32;;
65477;SDS011;53678;39.642;22.430;2022-08-19T06:54:38;7.32;;;3.70;;
65477;SDS011;53678;39.642;22.430;2022-08-19T06:57:05;7.82;;;4.03;;
65477;SDS011;53678;39.642;22.430;2022-08-19T06:59:32;11.40;;;4.30;;
65477;SDS011;53678;39.642;22.430;2022-08-19T07:01:59;15.57;;;4.53;;
65477;SDS011;53678;39.642;22.430;2022-08-19T07:04:28;8.55;;;4.18;;
65477;SDS011;53678;39.642;22.430;2022-08-19T07:07:03;9.63;;;4.10;;
65477;SDS011;53678;39.642;22.430;2022-08-19T07:09:39;9.52;;;3.92;;
65477;SDS011;53678;39.642;22.430;2022-08-19T07:12:07;14.48;;;4.40;;
65477;SDS011;53678;39.642;22.430;2022-08-19T07:14:34;10.07;;;3.88;;
65477;SDS011;53678;39.642;22.430;2022-08-19T07:17:05;12.18;;;4.57;;
65477;SDS011;53678;39.642;22.430;2022-08-19T07:19:33;7.30;;;3.88;;
65477;SDS011;53678;39.642;22.430;2022-08-19T07:22:03;8.38;;;3.90;;
65477;SDS011;53678;39.642;22.430;2022-08-19T07:24:30;7.90;;;3.90;;
65477;SDS011;53678;39.642;22.430;2022-08-19T07:26:58;10.20;;;4.40;;
65477;SDS011;53678;39.642;22.430;2022-08-19T07:29:31;12.05;;;4.45;;
65477;SDS011;53678;39.642;22.430;2022-08-19T07:31:59;6.50;;;3.80;;
65477;SDS011;53678;39.642;22.430;2022-08-19T07:34:27;9.57;;;4.13;;
65477;SDS011;53678;39.642;22.430;2022-08-19T07:36:55;7.57;;;4.20;;
65477;SDS011;53678;39.642;22.430;2022-08-19T07:39:31;8.18;;;3.95;;
65477;SDS011;53678;39.642;22.430;2022-08-19T07:41:59;7.38;;;4.07;;
65477;SDS011;53678;39.642;22.430;2022-08-19T07:44:27;12.73;;;4.45;;
65477;SDS011;53678;39.642;22.430;2022-08-19T07:46:54;9.75;;;4.18;;
65477;SDS011;53678;39.642;22.430;2022-08-19T07:49:21;13.43;;;4.20;;
65477;SDS011;53678;39.642;22.430;2022-08-19T07:51:49;8.27;;;4.60;;
65477;SDS011;53678;39.642;22.430;2022-08-19T07:54:24;6.78;;;4.18;;
65477;SDS011;53678;39.642;22.430;2022-08-19T07:56:52;16.88;;;5.55;;
65477;SDS011;53678;39.642;22.430;2022-08-19T07:59:18;9.77;;;5.55;;
65477;SDS011;53678;39.642;22.430;2022-08-19T08:01:46;6.50;;;3.33;;
65477;SDS011;53678;39.642;22.430;2022-08-19T08:04:12;13.45;;;4.43;;
65477;SDS011;53678;39.642;22.430;2022-08-19T08:06:57;15.57;;;4.82;;
65477;SDS011;53678;39.642;22.430;2022-08-19T08:09:43;8.52;;;4.53;;
65477;SDS011;53678;39.642;22.430;2022-08-19T08:12:11;7.32;;;3.58;;
65477;SDS011;53678;39.642;22.430;2022-08-19T08:14:44;6.22;;;3.85;;
65477;SDS011;53678;39.642;22.430;2022-08-19T08:17:13;5.47;;;3.95;;
65477;SDS011;53678;39.642;22.430;2022-08-19T08:19:40;8.55;;;3.50;;
65477;SDS011;53678;39.642;22.430;2022-08-19T08:22:08;8.82;;;5.03;;
65477;SDS011;53678;39.642;22.430;2022-08-19T08:24:54;6.78;;;3.60;;
65477;SDS011;53678;39.642;22.430;2022-08-19T08:27:23;7.45;;;3.83;;
65477;SDS011;53678;39.642;22.430;2022-08-19T08:29:49;12.57;;;3.67;;
65477;SDS011;53678;39.642;22.430;2022-08-19T08:32:15;6.40;;;3.63;;
65477;SDS011;53678;39.642;22.430;2022-08-19T08:34:42;7.13;;;3.08;;
65477;SDS011;53678;39.642;22.430;2022-08-19T08:37:08;9.50;;;3.30;;
65477;SDS011;53678;39.642;22.430;2022-08-19T08:39:34;6.75;;;3.40;;
65477;SDS011;53678;39.642;22.430;2022-08-19T08:47:25;8.95;;;3.50;;
65477;SDS011;53678;39.642;22.430;2022-08-19T08:49:54;8.60;;;3.63;;
65477;SDS011;53678;39.642;22.430;2022-08-19T08:52:31;5.50;;;3.60;;
65477;SDS011;53678;39.642;22.430;2022-08-19T08:55:03;5.20;;;3.00;;
65477;SDS011;53678;39.642;22.430;2022-08-19T09:02:57;7.45;;;3.55;;
65477;SDS011;53678;39.642;22.430;2022-08-19T09:05:26;6.72;;;3.22;;
65477;SDS011;53678;39.642;22.430;2022-08-19T09:08:07;3.90;;;3.20;;
65477;SDS011;53678;39.642;22.430;2022-08-19T09:11:17;7.90;;;3.60;;
65477;SDS011;53678;39.642;22.430;2022-08-19T09:13:39;7.03;;;3.65;;
65477;SDS011;53678;39.642;22.430;2022-08-19T09:16:18;6.57;;;3.35;;
65477;SDS011;53678;39.642;22.430;2022-08-19T09:18:50;5.80;;;3.05;;
65477;SDS011;53678;39.642;22.430;2022-08-19T09:21:19;7.65;;;3.95;;
65477;SDS011;53678;39.642;22.430;2022-08-19T09:23:49;4.57;;;3.30;;
65477;SDS011;53678;39.642;22.430;2022-08-19T09:26:16;6.15;;;3.50;;
65477;SDS011;53678;39.642;22.430;2022-08-19T09:28:45;7.95;;;3.47;;
65477;SDS011;53678;39.642;22.430;2022-08-19T09:31:13;10.32;;;3.80;;
65477;SDS011;53678;39.642;22.430;2022-08-19T09:33:40;6.90;;;3.38;;
65477;SDS011;53678;39.642;22.430;2022-08-19T09:36:10;6.07;;;3.42;;
65477;SDS011;53678;39.642;22.430;2022-08-19T09:38:37;9.57;;;3.60;;
65477;SDS011;53678;39.642;22.430;2022-08-19T09:41:06;6.93;;;3.50;;
65477;SDS011;53678;39.642;22.430;2022-08-19T09:43:34;6.63;;;3.20;;
65477;SDS011;53678;39.642;22.430;2022-08-19T09:46:03;5.28;;;3.50;;
65477;SDS011;53678;39.642;22.430;2022-08-19T09:48:32;6.70;;;3.25;;
65477;SDS011;53678;39.642;22.430;2022-08-19T09:51:08;6.60;;;3.45;;
65477;SDS011;53678;39.642;22.430;2022-08-19T09:53:36;7.72;;;3.47;;
65477;SDS011;53678;39.642;22.430;2022-08-19T09:56:03;5.95;;;3.58;;
65477;SDS011;53678;39.642;22.430;2022-08-19T09:58:31;6.95;;;3.65;;
65477;SDS011;53678;39.642;22.430;2022-08-19T10:00:58;6.32;;;3.40;;
65477;SDS011;53678;39.642;22.430;2022-08-19T10:03:25;8.85;;;3.58;;
65477;SDS011;53678;39.642;22.430;2022-08-19T10:05:52;6.63;;;3.58;;
65477;SDS011;53678;39.642;22.430;2022-08-19T10:08:20;4.40;;;3.22;;
65477;SDS011;53678;39.642;22.430;2022-08-19T10:10:48;7.57;;;3.70;;
65477;SDS011;53678;39.642;22.430;2022-08-19T10:13:18;6.60;;;3.17;;
65477;SDS011;53678;39.642;22.430;2022-08-19T10:15:48;7.63;;;3.08;;
65477;SDS011;53678;39.642;22.430;2022-08-19T10:18:18;5.55;;;2.85;;
65477;SDS011;53678;39.642;22.430;2022-08-19T10:20:46;3.70;;;2.75;;
65477;SDS011;53678;39.642;22.430;2022-08-19T10:23:13;6.88;;;2.70;;
65477;SDS011;53678;39.642;22.430;2022-08-19T10:25:40;5.40;;;3.00;;
65477;SDS011;53678;39.642;22.430;2022-08-19T10:28:08;5.20;;;3.00;;
65477;SDS011;53678;39.642;22.430;2022-08-19T10:30:38;5.45;;;3.00;;
65477;SDS011;53678;39.642;22.430;2022-08-19T10:33:05;5.28;;;2.55;;
65477;SDS011;53678;39.642;22.430;2022-08-19T10:35:31;5.88;;;2.60;;
65477;SDS011;53678;39.642;22.430;2022-08-19T10:37:58;6.03;;;2.70;;
65477;SDS011;53678;39.642;22.430;2022-08-19T10:40:25;5.30;;;2.90;;
65477;SDS011;53678;39.642;22.430;2022-08-19T10:42:52;6.47;;;3.55;;
65477;SDS011;53678;39.642;22.430;2022-08-19T10:45:20;5.65;;;2.85;;
65477;SDS011;53678;39.642;22.430;2022-08-19T10:47:54;4.90;;;2.63;;
65477;SDS011;53678;39.642;22.430;2022-08-19T10:50:20;6.38;;;3.00;;
65477;SDS011;53678;39.642;22.430;2022-08-19T10:53:05;6.57;;;3.00;;
65477;SDS011;53678;39.642;22.430;2022-08-19T10:55:36;4.38;;;2.65;;
65477;SDS011;53678;39.642;22.430;2022-08-19T10:58:20;8.32;;;3.55;;
65477;SDS011;53678;39.642;22.430;2022-08-19T11:00:52;5.75;;;3.25;;
65477;SDS011;53678;39.642;22.430;2022-08-19T11:03:20;5.68;;;3.30;;
65477;SDS011;53678;39.642;22.430;2022-08-19T11:05:46;5.53;;;2.90;;
65477;SDS011;53678;39.642;22.430;2022-08-19T11:08:14;6.65;;;3.03;;
65477;SDS011;53678;39.642;22.430;2022-08-19T11:10:43;7.07;;;3.05;;
65477;SDS011;53678;39.642;22.430;2022-08-19T11:13:09;4.15;;;2.55;;
65477;SDS011;53678;39.642;22.430;2022-08-19T11:15:35;7.50;;;2.90;;
65477;SDS011;53678;39.642;22.430;2022-08-19T11:18:00;7.13;;;3.17;;
65477;SDS011;53678;39.642;22.430;2022-08-19T11:20:26;7.75;;;2.88;;
65477;SDS011;53678;39.642;22.430;2022-08-19T11:22:52;8.38;;;2.85;;
65477;SDS011;53678;39.642;22.430;2022-08-19T11:25:18;6.72;;;2.60;;
65477;SDS011;53678;39.642;22.430;2022-08-19T11:27:44;6.10;;;2.78;;
65477;SDS011;53678;39.642;22.430;2022-08-19T11:30:12;5.43;;;2.80;;
65477;SDS011;53678;39.642;22.430;2022-08-19T11:32:41;4.82;;;2.50;;
65477;SDS011;53678;39.642;22.430;2022-08-19T11:35:07;5.20;;;2.60;;
65477;SDS011;53678;39.642;22.430;2022-08-19T11:37:33;4.88;;;2.75;;
65477;SDS011;53678;39.642;22.430;2022-08-19T11:40:03;6.50;;;2.10;;
65477;SDS011;53678;39.642;22.430;2022-08-19T11:42:30;7.70;;;2.90;;
65477;SDS011;53678;39.642;22.430;2022-08-19T11:45:14;6.95;;;3.15;;
65477;SDS011;53678;39.642;22.430;2022-08-19T11:47:40;5.90;;;3.10;;
65477;SDS011;53678;39.642;22.430;2022-08-19T11:50:06;6.63;;;2.63;;
65477;SDS011;53678;39.642;22.430;2022-08-19T11:52:32;5.35;;;2.75;;
65477;SDS011;53678;39.642;22.430;2022-08-19T11:54:58;5.40;;;2.65;;
65477;SDS011;53678;39.642;22.430;2022-08-19T11:57:24;7.03;;;2.67;;
65477;SDS011;53678;39.642;22.430;2022-08-19T11:59:50;5.35;;;2.50;;
65477;SDS011;53678;39.642;22.430;2022-08-19T12:02:17;8.10;;;4.20;;
65477;SDS011;53678;39.642;22.430;2022-08-19T12:04:44;6.03;;;3.47;;
65477;SDS011;53678;39.642;22.430;2022-08-19T12:07:10;4.85;;;2.47;;
65477;SDS011;53678;39.642;22.430;2022-08-19T12:09:36;5.32;;;2.70;;
65477;SDS011;53678;39.642;22.430;2022-08-19T12:12:04;6.47;;;2.42;;
65477;SDS011;53678;39.642;22.430;2022-08-19T12:14:31;6.55;;;2.95;;
65477;SDS011;53678;39.642;22.430;2022-08-19T12:16:57;7.28;;;3.05;;
65477;SDS011;53678;39.642;22.430;2022-08-19T12:19:23;6.90;;;2.45;;
65477;SDS011;53678;39.642;22.430;2022-08-19T12:21:50;7.75;;;2.83;;
65477;SDS011;53678;39.642;22.430;2022-08-19T12:24:18;8.80;;;2.72;;
65477;SDS011;53678;39.642;22.430;2022-08-19T12:26:48;5.90;;;2.72;;
65477;SDS011;53678;39.642;22.430;2022-08-19T12:29:15;4.75;;;2.60;;
65477;SDS011;53678;39.642;22.430;2022-08-19T12:31:41;6.30;;;2.78;;
65477;SDS011;53678;39.642;22.430;2022-08-19T12:34:06;5.40;;;2.30;;
65477;SDS011;53678;39.642;22.430;2022-08-19T12:36:32;7.50;;;2.53;;
65477;SDS011;53678;39.642;22.430;2022-08-19T12:38:58;6.63;;;2.40;;
65477;SDS011;53678;39.642;22.430;2022-08-19T12:41:27;7.88;;;2.40;;
65477;SDS011;53678;39.642;22.430;2022-08-19T12:43:53;5.35;;;2.70;;
65477;SDS011;53678;39.642;22.430;2022-08-19T12:46:19;7.10;;;2.60;;
65477;SDS011;53678;39.642;22.430;2022-08-19T12:48:45;9.23;;;2.60;;
65477;SDS011;53678;39.642;22.430;2022-08-19T12:51:13;7.15;;;2.63;;
65477;SDS011;53678;39.642;22.430;2022-08-19T12:53:43;7.60;;;2.50;;
65477;SDS011;53678;39.642;22.430;2022-08-19T12:56:10;5.30;;;2.28;;
65477;SDS011;53678;39.642;22.430;2022-08-19T12:58:36;7.43;;;2.50;;
65477;SDS011;53678;39.642;22.430;2022-08-19T13:01:06;8.05;;;2.78;;
65477;SDS011;53678;39.642;22.430;2022-08-19T13:03:33;8.30;;;2.90;;
65477;SDS011;53678;39.642;22.430;2022-08-19T13:05:59;8.95;;;2.58;;
65477;SDS011;53678;39.642;22.430;2022-08-19T13:08:25;6.53;;;2.70;;
65477;SDS011;53678;39.642;22.430;2022-08-19T13:10:50;8.68;;;2.70;;
65477;SDS011;53678;39.642;22.430;2022-08-19T13:13:16;5.63;;;2.80;;
65477;SDS011;53678;39.642;22.430;2022-08-19T13:15:42;7.00;;;2.60;;
65477;SDS011;53678;39.642;22.430;2022-08-19T13:18:10;5.90;;;2.80;;
65477;SDS011;53678;39.642;22.430;2022-08-19T13:20:37;5.70;;;2.70;;
65477;SDS011;53678;39.642;22.430;2022-08-19T13:23:06;8.30;;;2.75;;
65477;SDS011;53678;39.642;22.430;2022-08-19T13:25:33;6.72;;;2.60;;
65477;SDS011;53678;39.642;22.430;2022-08-19T13:27:59;5.93;;;2.55;;
65477;SDS011;53678;39.642;22.430;2022-08-19T13:30:27;4.88;;;2.80;;
65477;SDS011;53678;39.642;22.430;2022-08-19T13:33:11;6.13;;;2.47;;
65477;SDS011;53678;39.642;22.430;2022-08-19T13:35:47;6.20;;;2.97;;
65477;SDS011;53678;39.642;22.430;2022-08-19T13:38:21;5.65;;;2.92;;
65477;SDS011;53678;39.642;22.430;2022-08-19T13:40:47;5.28;;;2.90;;
65477;SDS011;53678;39.642;22.430;2022-08-19T13:43:15;4.07;;;2.50;;
65477;SDS011;53678;39.642;22.430;2022-08-19T13:45:42;5.85;;;2.70;;
65477;SDS011;53678;39.642;22.430;2022-08-19T13:48:09;7.63;;;3.10;;
65477;SDS011;53678;39.642;22.430;2022-08-19T13:50:38;7.90;;;2.65;;
65477;SDS011;53678;39.642;22.430;2022-08-19T13:53:06;6.43;;;2.80;;
65477;SDS011;53678;39.642;22.430;2022-08-19T13:55:33;4.57;;;2.70;;
65477;SDS011;53678;39.642;22.430;2022-08-19T13:58:00;6.30;;;3.00;;
65477;SDS011;53678;39.642;22.430;2022-08-19T14:00:31;7.15;;;3.03;;
65477;SDS011;53678;39.642;22.430;2022-08-19T14:02:59;5.45;;;3.10;;
65477;SDS011;53678;39.642;22.430;2022-08-19T14:05:25;6.38;;;2.80;;
65477;SDS011;53678;39.642;22.430;2022-08-19T14:07:52;4.55;;;2.65;;
65477;SDS011;53678;39.642;22.430;2022-08-19T14:10:18;5.72;;;2.60;;
65477;SDS011;53678;39.642;22.430;2022-08-19T14:12:46;6.13;;;2.97;;
65477;SDS011;53678;39.642;22.430;2022-08-19T14:15:12;4.53;;;2.92;;
65477;SDS011;53678;39.642;22.430;2022-08-19T14:17:39;5.10;;;2.83;;
65477;SDS011;53678;39.642;22.430;2022-08-19T14:20:07;5.75;;;3.10;;
65477;SDS011;53678;39.642;22.430;2022-08-19T14:22:35;8.07;;;3.33;;
65477;SDS011;53678;39.642;22.430;2022-08-19T14:25:06;5.75;;;3.70;;
65477;SDS011;53678;39.642;22.430;2022-08-19T14:27:34;5.57;;;3.30;;
65477;SDS011;53678;39.642;22.430;2022-08-19T14:30:05;5.07;;;3.47;;
65477;SDS011;53678;39.642;22.430;2022-08-19T14:32:32;5.47;;;3.10;;
65477;SDS011;53678;39.642;22.430;2022-08-19T14:34:58;6.03;;;3.10;;
65477;SDS011;53678;39.642;22.430;2022-08-19T14:37:24;7.25;;;3.13;;
65477;SDS011;53678;39.642;22.430;2022-08-19T14:39:50;5.07;;;2.95;;
65477;SDS011;53678;39.642;22.430;2022-08-19T14:42:16;6.20;;;3.33;;
65477;SDS011;53678;39.642;22.430;2022-08-19T14:44:42;7.60;;;3.20;;
65477;SDS011;53678;39.642;22.430;2022-08-19T14:47:08;4.90;;;3.20;;
65477;SDS011;53678;39.642;22.430;2022-08-19T14:49:34;5.43;;;3.15;;
65477;SDS011;53678;39.642;22.430;2022-08-19T14:52:00;7.05;;;3.42;;
65477;SDS011;53678;39.642;22.430;2022-08-19T14:54:28;7.57;;;3.40;;